sensor_id;sensor_type;location;lat;lon;timestamp;P1;durP1;ratioP1;P2;durP2;ratioP2
40533;SDS011;26233;51.894;10.192;2023-04-24T00:02:00;0.88;;;0.88;;
40533;SDS011;26233;51.894;10.192;2023-04-24T00:04:29;1.10;;;1.00;;
40533;SDS011;26233;51.894;10.192;2023-04-24T00:06:56;1.10;;;1.00;;
40533;SDS011;26233;51.894;10.192;2023-04-24T00:09:26;1.00;;;1.00;;
40533;SDS011;26233;51.894;10.192;2023-04-24T00:11:53;1.60;;;1.00;;
40533;SDS011;26233;51.894;10.192;2023-04-24T00:14:21;0.75;;;0.75;;
40533;SDS011;26233;51.894;10.192;2023-04-24T00:16:48;1.48;;;1.15;;
40533;SDS011;26233;51.894;10.192;2023-04-24T00:19:15;1.10;;;1.00;;
40533;SDS011;26233;51.894;10.192;2023-04-24T00:21:42;1.33;;;1.17;;
40533;SDS011;26233;51.894;10.192;2023-04-24T00:24:11;1.02;;;1.02;;
40533;SDS011;26233;51.894;10.192;2023-04-24T00:26:39;1.00;;;1.00;;
40533;SDS011;26233;51.894;10.192;2023-04-24T00:29:06;0.98;;;0.90;;
40533;SDS011;26233;51.894;10.192;2023-04-24T00:31:33;1.20;;;1.10;;
40533;SDS011;26233;51.894;10.192;2023-04-24T00:34:00;1.40;;;1.30;;
40533;SDS011;26233;51.894;10.192;2023-04-24T00:36:28;1.15;;;1.05;;
40533;SDS011;26233;51.894;10.192;2023-04-24T00:38:55;1.40;;;1.30;;
40533;SDS011;26233;51.894;10.192;2023-04-24T00:41:23;1.42;;;1.33;;
40533;SDS011;26233;51.894;10.192;2023-04-24T00:43:53;1.83;;;1.50;;
40533;SDS011;26233;51.894;10.192;2023-04-24T00:46:20;1.45;;;1.35;;
40533;SDS011;26233;51.894;10.192;2023-04-24T00:48:47;1.75;;;1.65;;
40533;SDS011;26233;51.894;10.192;2023-04-24T00:51:14;1.50;;;1.40;;
40533;SDS011;26233;51.894;10.192;2023-04-24T00:53:41;1.63;;;1.50;;
40533;SDS011;26233;51.894;10.192;2023-04-24T00:56:08;1.27;;;1.17;;
40533;SDS011;26233;51.894;10.192;2023-04-24T00:58:36;1.30;;;1.20;;
40533;SDS011;26233;51.894;10.192;2023-04-24T01:01:05;1.20;;;1.10;;
40533;SDS011;26233;51.894;10.192;2023-04-24T01:03:33;1.20;;;1.10;;
40533;SDS011;26233;51.894;10.192;2023-04-24T01:06:04;1.23;;;1.02;;
40533;SDS011;26233;51.894;10.192;2023-04-24T01:08:33;1.40;;;0.90;;
40533;SDS011;26233;51.894;10.192;2023-04-24T01:11:02;1.42;;;1.10;;
40533;SDS011;26233;51.894;10.192;2023-04-24T01:13:31;1.00;;;0.88;;
40533;SDS011;26233;51.894;10.192;2023-04-24T01:15:59;1.20;;;1.10;;
40533;SDS011;26233;51.894;10.192;2023-04-24T01:18:27;1.50;;;0.80;;
40533;SDS011;26233;51.894;10.192;2023-04-24T01:20:56;1.10;;;1.00;;
40533;SDS011;26233;51.894;10.192;2023-04-24T01:23:26;0.85;;;0.82;;
40533;SDS011;26233;51.894;10.192;2023-04-24T01:25:56;0.88;;;0.80;;
40533;SDS011;26233;51.894;10.192;2023-04-24T01:28:23;0.80;;;0.80;;
40533;SDS011;26233;51.894;10.192;2023-04-24T01:30:51;1.60;;;0.90;;
40533;SDS011;26233;51.894;10.192;2023-04-24T01:33:18;1.55;;;0.90;;
40533;SDS011;26233;51.894;10.192;2023-04-24T01:35:48;0.77;;;0.77;;
40533;SDS011;26233;51.894;10.192;2023-04-24T01:38:15;1.00;;;1.00;;
40533;SDS011;26233;51.894;10.192;2023-04-24T01:40:43;0.80;;;0.80;;
40533;SDS011;26233;51.894;10.192;2023-04-24T01:43:11;3.15;;;1.00;;
40533;SDS011;26233;51.894;10.192;2023-04-24T01:45:39;0.80;;;0.80;;
40533;SDS011;26233;51.894;10.192;2023-04-24T01:48:06;0.80;;;0.80;;
40533;SDS011;26233;51.894;10.192;2023-04-24T01:50:33;0.80;;;0.80;;
40533;SDS011;26233;51.894;10.192;2023-04-24T01:53:00;0.80;;;0.80;;
40533;SDS011;26233;51.894;10.192;2023-04-24T01:55:27;0.85;;;0.85;;
40533;SDS011;26233;51.894;10.192;2023-04-24T01:57:56;0.77;;;0.77;;
40533;SDS011;26233;51.894;10.192;2023-04-24T02:00:23;0.70;;;0.70;;
40533;SDS011;26233;51.894;10.192;2023-04-24T02:02:51;0.70;;;0.70;;
40533;SDS011;26233;51.894;10.192;2023-04-24T02:05:18;0.70;;;0.70;;
40533;SDS011;26233;51.894;10.192;2023-04-24T02:07:45;0.80;;;0.80;;
40533;SDS011;26233;51.894;10.192;2023-04-24T02:10:12;0.60;;;0.60;;
40533;SDS011;26233;51.894;10.192;2023-04-24T02:12:39;0.50;;;0.50;;
40533;SDS011;26233;51.894;10.192;2023-04-24T02:15:08;1.05;;;0.95;;
40533;SDS011;26233;51.894;10.192;2023-04-24T02:17:36;0.80;;;0.68;;
40533;SDS011;26233;51.894;10.192;2023-04-24T02:20:04;0.70;;;0.70;;
40533;SDS011;26233;51.894;10.192;2023-04-24T02:22:32;0.70;;;0.70;;
40533;SDS011;26233;51.894;10.192;2023-04-24T02:24:59;0.73;;;0.70;;
40533;SDS011;26233;51.894;10.192;2023-04-24T02:27:27;0.60;;;0.60;;
40533;SDS011;26233;51.894;10.192;2023-04-24T02:29:53;0.80;;;0.80;;
40533;SDS011;26233;51.894;10.192;2023-04-24T02:32:22;0.80;;;0.80;;
40533;SDS011;26233;51.894;10.192;2023-04-24T02:34:49;1.58;;;0.82;;
40533;SDS011;26233;51.894;10.192;2023-04-24T02:37:16;1.10;;;0.80;;
40533;SDS011;26233;51.894;10.192;2023-04-24T02:39:43;0.90;;;0.85;;
40533;SDS011;26233;51.894;10.192;2023-04-24T02:42:15;0.80;;;0.80;;
40533;SDS011;26233;51.894;10.192;2023-04-24T02:44:42;0.80;;;0.80;;
40533;SDS011;26233;51.894;10.192;2023-04-24T02:47:09;0.70;;;0.70;;
40533;SDS011;26233;51.894;10.192;2023-04-24T02:49:37;0.70;;;0.70;;
40533;SDS011;26233;51.894;10.192;2023-04-24T02:52:04;0.70;;;0.70;;
40533;SDS011;26233;51.894;10.192;2023-04-24T02:54:31;1.60;;;0.80;;
40533;SDS011;26233;51.894;10.192;2023-04-24T02:56:58;1.70;;;0.80;;
40533;SDS011;26233;51.894;10.192;2023-04-24T02:59:26;0.95;;;0.80;;
40533;SDS011;26233;51.894;10.192;2023-04-24T03:01:53;0.90;;;0.70;;
40533;SDS011;26233;51.894;10.192;2023-04-24T03:04:21;0.80;;;0.80;;
40533;SDS011;26233;51.894;10.192;2023-04-24T03:06:49;1.08;;;0.80;;
40533;SDS011;26233;51.894;10.192;2023-04-24T03:09:20;0.80;;;0.80;;
40533;SDS011;26233;51.894;10.192;2023-04-24T03:11:50;0.70;;;0.70;;
40533;SDS011;26233;51.894;10.192;2023-04-24T03:14:17;0.77;;;0.77;;
40533;SDS011;26233;51.894;10.192;2023-04-24T03:16:44;0.98;;;0.80;;
40533;SDS011;26233;51.894;10.192;2023-04-24T03:19:11;0.77;;;0.77;;
40533;SDS011;26233;51.894;10.192;2023-04-24T03:21:38;0.80;;;0.80;;
40533;SDS011;26233;51.894;10.192;2023-04-24T03:24:07;0.90;;;0.90;;
40533;SDS011;26233;51.894;10.192;2023-04-24T03:26:36;0.82;;;0.70;;
40533;SDS011;26233;51.894;10.192;2023-04-24T03:29:03;1.83;;;0.90;;
40533;SDS011;26233;51.894;10.192;2023-04-24T03:31:35;0.75;;;0.75;;
40533;SDS011;26233;51.894;10.192;2023-04-24T03:34:02;0.80;;;0.80;;
40533;SDS011;26233;51.894;10.192;2023-04-24T03:36:29;0.80;;;0.80;;
40533;SDS011;26233;51.894;10.192;2023-04-24T03:38:58;0.80;;;0.80;;
40533;SDS011;26233;51.894;10.192;2023-04-24T03:41:28;1.25;;;0.80;;
40533;SDS011;26233;51.894;10.192;2023-04-24T03:43:56;0.85;;;0.82;;
40533;SDS011;26233;51.894;10.192;2023-04-24T03:46:25;0.63;;;0.63;;
40533;SDS011;26233;51.894;10.192;2023-04-24T03:48:52;1.15;;;0.80;;
40533;SDS011;26233;51.894;10.192;2023-04-24T03:51:19;0.80;;;0.80;;
40533;SDS011;26233;51.894;10.192;2023-04-24T03:53:46;0.88;;;0.82;;
40533;SDS011;26233;51.894;10.192;2023-04-24T03:56:13;0.70;;;0.70;;
40533;SDS011;26233;51.894;10.192;2023-04-24T03:58:42;1.08;;;0.70;;
40533;SDS011;26233;51.894;10.192;2023-04-24T04:01:09;1.40;;;0.70;;
40533;SDS011;26233;51.894;10.192;2023-04-24T04:03:36;0.77;;;0.70;;
40533;SDS011;26233;51.894;10.192;2023-04-24T04:06:13;0.60;;;0.60;;
40533;SDS011;26233;51.894;10.192;2023-04-24T04:08:40;0.98;;;0.88;;
40533;SDS011;26233;51.894;10.192;2023-04-24T04:11:07;0.95;;;0.93;;
40533;SDS011;26233;51.894;10.192;2023-04-24T04:13:34;0.98;;;0.82;;
40533;SDS011;26233;51.894;10.192;2023-04-24T04:16:05;0.80;;;0.80;;
40533;SDS011;26233;51.894;10.192;2023-04-24T04:18:32;1.30;;;0.63;;
40533;SDS011;26233;51.894;10.192;2023-04-24T04:21:00;0.75;;;0.75;;
40533;SDS011;26233;51.894;10.192;2023-04-24T04:23:27;0.80;;;0.70;;
40533;SDS011;26233;51.894;10.192;2023-04-24T04:25:57;1.25;;;0.88;;
40533;SDS011;26233;51.894;10.192;2023-04-24T04:28:24;0.90;;;0.90;;
40533;SDS011;26233;51.894;10.192;2023-04-24T04:30:52;0.98;;;0.77;;
40533;SDS011;26233;51.894;10.192;2023-04-24T04:33:21;0.75;;;0.70;;
40533;SDS011;26233;51.894;10.192;2023-04-24T04:35:49;1.05;;;0.95;;
40533;SDS011;26233;51.894;10.192;2023-04-24T04:38:17;2.03;;;0.90;;
40533;SDS011;26233;51.894;10.192;2023-04-24T04:40:44;0.90;;;0.90;;
40533;SDS011;26233;51.894;10.192;2023-04-24T04:43:12;0.80;;;0.80;;
40533;SDS011;26233;51.894;10.192;2023-04-24T04:45:40;1.40;;;0.85;;
40533;SDS011;26233;51.894;10.192;2023-04-24T04:48:08;1.00;;;0.90;;
40533;SDS011;26233;51.894;10.192;2023-04-24T04:50:39;0.80;;;0.80;;
40533;SDS011;26233;51.894;10.192;2023-04-24T04:53:06;1.40;;;1.30;;
40533;SDS011;26233;51.894;10.192;2023-04-24T04:55:33;1.20;;;1.02;;
40533;SDS011;26233;51.894;10.192;2023-04-24T04:58:00;0.90;;;0.90;;
40533;SDS011;26233;51.894;10.192;2023-04-24T05:00:27;0.90;;;0.90;;
40533;SDS011;26233;51.894;10.192;2023-04-24T05:02:59;0.80;;;0.80;;
40533;SDS011;26233;51.894;10.192;2023-04-24T05:05:26;1.45;;;1.13;;
40533;SDS011;26233;51.894;10.192;2023-04-24T05:07:56;1.10;;;1.00;;
40533;SDS011;26233;51.894;10.192;2023-04-24T05:10:23;1.10;;;1.00;;
40533;SDS011;26233;51.894;10.192;2023-04-24T05:12:50;4.45;;;1.17;;
40533;SDS011;26233;51.894;10.192;2023-04-24T05:15:17;1.20;;;1.10;;
40533;SDS011;26233;51.894;10.192;2023-04-24T05:17:45;1.15;;;1.05;;
40533;SDS011;26233;51.894;10.192;2023-04-24T05:20:14;1.30;;;1.20;;
40533;SDS011;26233;51.894;10.192;2023-04-24T05:22:41;2.15;;;1.45;;
40533;SDS011;26233;51.894;10.192;2023-04-24T05:25:10;1.20;;;1.10;;
40533;SDS011;26233;51.894;10.192;2023-04-24T05:27:37;1.52;;;1.27;;
40533;SDS011;26233;51.894;10.192;2023-04-24T05:30:05;2.60;;;1.27;;
40533;SDS011;26233;51.894;10.192;2023-04-24T05:32:34;1.40;;;1.30;;
40533;SDS011;26233;51.894;10.192;2023-04-24T05:35:01;1.42;;;1.30;;
40533;SDS011;26233;51.894;10.192;2023-04-24T05:37:28;1.65;;;1.23;;
40533;SDS011;26233;51.894;10.192;2023-04-24T05:39:55;1.15;;;1.05;;
40533;SDS011;26233;51.894;10.192;2023-04-24T05:42:24;1.50;;;1.10;;
40533;SDS011;26233;51.894;10.192;2023-04-24T05:44:51;1.58;;;1.10;;
40533;SDS011;26233;51.894;10.192;2023-04-24T05:47:19;2.78;;;1.13;;
40533;SDS011;26233;51.894;10.192;2023-04-24T05:49:47;1.05;;;1.00;;
40533;SDS011;26233;51.894;10.192;2023-04-24T05:52:14;1.20;;;1.10;;
40533;SDS011;26233;51.894;10.192;2023-04-24T05:54:41;1.10;;;1.00;;
40533;SDS011;26233;51.894;10.192;2023-04-24T05:57:10;1.30;;;1.00;;
40533;SDS011;26233;51.894;10.192;2023-04-24T05:59:38;0.95;;;0.95;;
40533;SDS011;26233;51.894;10.192;2023-04-24T06:02:06;1.10;;;1.00;;
40533;SDS011;26233;51.894;10.192;2023-04-24T06:04:33;1.30;;;1.05;;
40533;SDS011;26233;51.894;10.192;2023-04-24T06:07:00;1.17;;;0.90;;
40533;SDS011;26233;51.894;10.192;2023-04-24T06:09:28;1.08;;;0.98;;
40533;SDS011;26233;51.894;10.192;2023-04-24T06:11:55;1.33;;;0.85;;
40533;SDS011;26233;51.894;10.192;2023-04-24T06:14:22;1.10;;;1.00;;
40533;SDS011;26233;51.894;10.192;2023-04-24T06:16:50;0.90;;;0.90;;
40533;SDS011;26233;51.894;10.192;2023-04-24T06:19:17;0.93;;;0.93;;
40533;SDS011;26233;51.894;10.192;2023-04-24T06:21:45;1.98;;;1.02;;
40533;SDS011;26233;51.894;10.192;2023-04-24T06:24:13;1.10;;;0.93;;
40533;SDS011;26233;51.894;10.192;2023-04-24T06:26:41;1.00;;;0.90;;
40533;SDS011;26233;51.894;10.192;2023-04-24T06:29:08;0.77;;;0.77;;
40533;SDS011;26233;51.894;10.192;2023-04-24T06:31:35;0.90;;;0.90;;
40533;SDS011;26233;51.894;10.192;2023-04-24T06:34:04;1.23;;;1.10;;
40533;SDS011;26233;51.894;10.192;2023-04-24T06:36:31;1.10;;;0.90;;
40533;SDS011;26233;51.894;10.192;2023-04-24T06:38:59;0.90;;;0.90;;
40533;SDS011;26233;51.894;10.192;2023-04-24T06:41:27;0.82;;;0.82;;
40533;SDS011;26233;51.894;10.192;2023-04-24T06:43:55;0.80;;;0.80;;
40533;SDS011;26233;51.894;10.192;2023-04-24T06:46:22;1.00;;;0.90;;
40533;SDS011;26233;51.894;10.192;2023-04-24T06:48:51;0.80;;;0.80;;
40533;SDS011;26233;51.894;10.192;2023-04-24T06:51:22;1.00;;;0.90;;
40533;SDS011;26233;51.894;10.192;2023-04-24T06:53:49;1.42;;;0.85;;
40533;SDS011;26233;51.894;10.192;2023-04-24T06:56:17;1.40;;;0.98;;
40533;SDS011;26233;51.894;10.192;2023-04-24T06:58:45;0.80;;;0.80;;
40533;SDS011;26233;51.894;10.192;2023-04-24T07:01:12;0.82;;;0.82;;
40533;SDS011;26233;51.894;10.192;2023-04-24T07:03:39;1.20;;;1.10;;
40533;SDS011;26233;51.894;10.192;2023-04-24T07:06:06;1.17;;;1.00;;
40533;SDS011;26233;51.894;10.192;2023-04-24T07:08:34;0.90;;;0.90;;
40533;SDS011;26233;51.894;10.192;2023-04-24T07:11:01;0.90;;;0.90;;
40533;SDS011;26233;51.894;10.192;2023-04-24T07:13:29;1.08;;;0.85;;
40533;SDS011;26233;51.894;10.192;2023-04-24T07:15:56;1.08;;;0.98;;
40533;SDS011;26233;51.894;10.192;2023-04-24T07:18:23;1.13;;;1.00;;
40533;SDS011;26233;51.894;10.192;2023-04-24T07:20:50;1.00;;;1.00;;
40533;SDS011;26233;51.894;10.192;2023-04-24T07:23:17;0.98;;;0.95;;
40533;SDS011;26233;51.894;10.192;2023-04-24T07:25:46;1.10;;;1.02;;
40533;SDS011;26233;51.894;10.192;2023-04-24T07:28:13;1.10;;;1.10;;
40533;SDS011;26233;51.894;10.192;2023-04-24T07:30:42;0.90;;;0.90;;
40533;SDS011;26233;51.894;10.192;2023-04-24T07:33:09;1.00;;;1.00;;
40533;SDS011;26233;51.894;10.192;2023-04-24T07:35:38;1.02;;;1.00;;
40533;SDS011;26233;51.894;10.192;2023-04-24T07:38:05;1.38;;;0.85;;
40533;SDS011;26233;51.894;10.192;2023-04-24T07:40:32;1.25;;;1.02;;
40533;SDS011;26233;51.894;10.192;2023-04-24T07:43:00;1.13;;;1.00;;
40533;SDS011;26233;51.894;10.192;2023-04-24T07:45:27;1.13;;;1.02;;
40533;SDS011;26233;51.894;10.192;2023-04-24T07:47:56;0.98;;;0.98;;
40533;SDS011;26233;51.894;10.192;2023-04-24T07:50:23;1.23;;;1.13;;
40533;SDS011;26233;51.894;10.192;2023-04-24T07:52:50;1.50;;;1.40;;
40533;SDS011;26233;51.894;10.192;2023-04-24T07:55:17;1.30;;;1.20;;
40533;SDS011;26233;51.894;10.192;2023-04-24T07:57:44;1.40;;;1.30;;
40533;SDS011;26233;51.894;10.192;2023-04-24T08:00:13;1.55;;;1.45;;
40533;SDS011;26233;51.894;10.192;2023-04-24T08:02:41;1.38;;;1.20;;
40533;SDS011;26233;51.894;10.192;2023-04-24T08:05:08;1.92;;;1.42;;
40533;SDS011;26233;51.894;10.192;2023-04-24T08:07:35;1.25;;;1.17;;
40533;SDS011;26233;51.894;10.192;2023-04-24T08:10:02;1.50;;;1.40;;
40533;SDS011;26233;51.894;10.192;2023-04-24T08:12:31;1.60;;;1.50;;
40533;SDS011;26233;51.894;10.192;2023-04-24T08:14:58;1.70;;;1.60;;
40533;SDS011;26233;51.894;10.192;2023-04-24T08:17:26;1.60;;;1.50;;
40533;SDS011;26233;51.894;10.192;2023-04-24T08:19:53;1.20;;;1.10;;
40533;SDS011;26233;51.894;10.192;2023-04-24T08:22:26;1.30;;;1.20;;
40533;SDS011;26233;51.894;10.192;2023-04-24T08:24:53;1.60;;;1.50;;
40533;SDS011;26233;51.894;10.192;2023-04-24T08:27:21;1.60;;;1.50;;
40533;SDS011;26233;51.894;10.192;2023-04-24T08:29:48;1.50;;;1.40;;
40533;SDS011;26233;51.894;10.192;2023-04-24T08:32:15;1.65;;;1.55;;
40533;SDS011;26233;51.894;10.192;2023-04-24T08:34:44;2.00;;;1.90;;
40533;SDS011;26233;51.894;10.192;2023-04-24T08:37:11;1.80;;;1.70;;
40533;SDS011;26233;51.894;10.192;2023-04-24T08:39:39;2.08;;;1.98;;
40533;SDS011;26233;51.894;10.192;2023-04-24T08:42:06;2.15;;;2.05;;
40533;SDS011;26233;51.894;10.192;2023-04-24T08:44:33;2.30;;;2.10;;
40533;SDS011;26233;51.894;10.192;2023-04-24T08:47:01;2.45;;;2.30;;
40533;SDS011;26233;51.894;10.192;2023-04-24T08:49:29;2.38;;;2.20;;
40533;SDS011;26233;51.894;10.192;2023-04-24T08:51:58;2.13;;;2.00;;
40533;SDS011;26233;51.894;10.192;2023-04-24T08:54:26;2.00;;;1.90;;
40533;SDS011;26233;51.894;10.192;2023-04-24T08:56:55;2.47;;;2.28;;
40533;SDS011;26233;51.894;10.192;2023-04-24T08:59:26;2.22;;;1.98;;
40533;SDS011;26233;51.894;10.192;2023-04-24T09:01:54;2.28;;;2.17;;
40533;SDS011;26233;51.894;10.192;2023-04-24T09:04:22;2.30;;;2.20;;
40533;SDS011;26233;51.894;10.192;2023-04-24T09:06:50;2.03;;;1.92;;
40533;SDS011;26233;51.894;10.192;2023-04-24T09:09:19;2.10;;;2.00;;
40533;SDS011;26233;51.894;10.192;2023-04-24T09:11:47;2.15;;;2.00;;
40533;SDS011;26233;51.894;10.192;2023-04-24T09:14:16;1.80;;;1.70;;
40533;SDS011;26233;51.894;10.192;2023-04-24T09:16:43;1.90;;;1.80;;
40533;SDS011;26233;51.894;10.192;2023-04-24T09:19:11;1.58;;;1.45;;
40533;SDS011;26233;51.894;10.192;2023-04-24T09:21:38;1.80;;;1.65;;
40533;SDS011;26233;51.894;10.192;2023-04-24T09:24:07;1.80;;;1.70;;
40533;SDS011;26233;51.894;10.192;2023-04-24T09:26:44;2.20;;;1.52;;
40533;SDS011;26233;51.894;10.192;2023-04-24T09:29:14;1.60;;;1.50;;
40533;SDS011;26233;51.894;10.192;2023-04-24T09:31:42;1.40;;;1.30;;
40533;SDS011;26233;51.894;10.192;2023-04-24T09:34:09;1.55;;;1.45;;
40533;SDS011;26233;51.894;10.192;2023-04-24T09:36:37;1.52;;;1.42;;
40533;SDS011;26233;51.894;10.192;2023-04-24T09:39:06;1.60;;;1.50;;
40533;SDS011;26233;51.894;10.192;2023-04-24T09:41:36;1.80;;;1.70;;
40533;SDS011;26233;51.894;10.192;2023-04-24T09:44:12;1.90;;;1.80;;
40533;SDS011;26233;51.894;10.192;2023-04-24T09:46:41;1.90;;;1.80;;
40533;SDS011;26233;51.894;10.192;2023-04-24T09:49:09;1.98;;;1.88;;
40533;SDS011;26233;51.894;10.192;2023-04-24T09:51:38;2.00;;;1.58;;
40533;SDS011;26233;51.894;10.192;2023-04-24T09:54:11;1.67;;;1.58;;
40533;SDS011;26233;51.894;10.192;2023-04-24T09:56:42;1.80;;;1.70;;
40533;SDS011;26233;51.894;10.192;2023-04-24T09:59:12;1.63;;;1.52;;
40533;SDS011;26233;51.894;10.192;2023-04-24T10:01:40;1.98;;;1.60;;
40533;SDS011;26233;51.894;10.192;2023-04-24T10:04:19;1.80;;;1.70;;
40533;SDS011;26233;51.894;10.192;2023-04-24T10:06:48;1.73;;;1.63;;
40533;SDS011;26233;51.894;10.192;2023-04-24T10:09:17;1.67;;;1.58;;
40533;SDS011;26233;51.894;10.192;2023-04-24T10:11:48;1.70;;;1.60;;
40533;SDS011;26233;51.894;10.192;2023-04-24T10:14:19;1.92;;;1.83;;
40533;SDS011;26233;51.894;10.192;2023-04-24T10:16:48;2.53;;;1.65;;
40533;SDS011;26233;51.894;10.192;2023-04-24T10:19:16;2.15;;;1.77;;
40533;SDS011;26233;51.894;10.192;2023-04-24T10:21:45;2.10;;;1.90;;
40533;SDS011;26233;51.894;10.192;2023-04-24T10:24:12;1.75;;;1.65;;
40533;SDS011;26233;51.894;10.192;2023-04-24T10:26:41;1.75;;;1.65;;
40533;SDS011;26233;51.894;10.192;2023-04-24T10:29:11;1.77;;;1.67;;
40533;SDS011;26233;51.894;10.192;2023-04-24T10:31:40;2.08;;;1.98;;
40533;SDS011;26233;51.894;10.192;2023-04-24T10:34:10;2.70;;;1.95;;
40533;SDS011;26233;51.894;10.192;2023-04-24T10:36:38;2.10;;;1.90;;
40533;SDS011;26233;51.894;10.192;2023-04-24T10:39:09;2.30;;;1.80;;
40533;SDS011;26233;51.894;10.192;2023-04-24T10:41:39;1.90;;;1.80;;
40533;SDS011;26233;51.894;10.192;2023-04-24T10:44:06;1.80;;;1.70;;
40533;SDS011;26233;51.894;10.192;2023-04-24T10:46:36;2.00;;;1.90;;
40533;SDS011;26233;51.894;10.192;2023-04-24T10:49:04;1.90;;;1.80;;
40533;SDS011;26233;51.894;10.192;2023-04-24T10:51:45;1.80;;;1.70;;
40533;SDS011;26233;51.894;10.192;2023-04-24T10:54:24;1.65;;;1.55;;
40533;SDS011;26233;51.894;10.192;2023-04-24T10:56:53;2.13;;;1.92;;
40533;SDS011;26233;51.894;10.192;2023-04-24T11:00:10;1.77;;;1.63;;
40533;SDS011;26233;51.894;10.192;2023-04-24T11:02:45;1.80;;;1.70;;
40533;SDS011;26233;51.894;10.192;2023-04-24T11:05:18;1.95;;;1.65;;
40533;SDS011;26233;51.894;10.192;2023-04-24T11:10:43;1.70;;;1.60;;
40533;SDS011;26233;51.894;10.192;2023-04-24T11:13:14;1.75;;;1.65;;
40533;SDS011;26233;51.894;10.192;2023-04-24T11:15:42;1.88;;;1.77;;
40533;SDS011;26233;51.894;10.192;2023-04-24T11:18:14;1.88;;;1.77;;
40533;SDS011;26233;51.894;10.192;2023-04-24T11:20:42;2.03;;;1.88;;
40533;SDS011;26233;51.894;10.192;2023-04-24T11:23:11;1.85;;;1.75;;
40533;SDS011;26233;51.894;10.192;2023-04-24T11:25:40;1.70;;;1.60;;
40533;SDS011;26233;51.894;10.192;2023-04-24T11:28:08;1.95;;;1.77;;
40533;SDS011;26233;51.894;10.192;2023-04-24T11:30:42;1.55;;;1.45;;
40533;SDS011;26233;51.894;10.192;2023-04-24T11:33:09;1.98;;;1.88;;
40533;SDS011;26233;51.894;10.192;2023-04-24T11:35:40;2.25;;;2.00;;
40533;SDS011;26233;51.894;10.192;2023-04-24T11:38:07;2.05;;;1.95;;
40533;SDS011;26233;51.894;10.192;2023-04-24T11:40:36;2.15;;;1.73;;
40533;SDS011;26233;51.894;10.192;2023-04-24T11:43:03;1.75;;;1.65;;
40533;SDS011;26233;51.894;10.192;2023-04-24T11:45:31;2.00;;;1.90;;
40533;SDS011;26233;51.894;10.192;2023-04-24T11:47:58;1.45;;;1.35;;
40533;SDS011;26233;51.894;10.192;2023-04-24T11:50:26;1.40;;;1.30;;
40533;SDS011;26233;51.894;10.192;2023-04-24T11:52:55;1.30;;;1.20;;
40533;SDS011;26233;51.894;10.192;2023-04-24T11:55:24;3.00;;;1.40;;
40533;SDS011;26233;51.894;10.192;2023-04-24T11:57:54;1.30;;;1.20;;
40533;SDS011;26233;51.894;10.192;2023-04-24T12:00:23;2.92;;;1.13;;
40533;SDS011;26233;51.894;10.192;2023-04-24T12:03:03;1.17;;;1.08;;
40533;SDS011;26233;51.894;10.192;2023-04-24T12:05:32;1.27;;;1.10;;
40533;SDS011;26233;51.894;10.192;2023-04-24T12:08:01;1.33;;;1.23;;
40533;SDS011;26233;51.894;10.192;2023-04-24T12:10:29;1.20;;;1.10;;
40533;SDS011;26233;51.894;10.192;2023-04-24T12:12:57;1.08;;;1.08;;
40533;SDS011;26233;51.894;10.192;2023-04-24T12:15:25;1.10;;;1.05;;
40533;SDS011;26233;51.894;10.192;2023-04-24T12:17:54;1.67;;;1.10;;
40533;SDS011;26233;51.894;10.192;2023-04-24T12:20:26;0.90;;;0.90;;
40533;SDS011;26233;51.894;10.192;2023-04-24T12:22:56;1.00;;;1.00;;
40533;SDS011;26233;51.894;10.192;2023-04-24T12:25:27;0.80;;;0.80;;
40533;SDS011;26233;51.894;10.192;2023-04-24T12:28:08;0.93;;;0.77;;
40533;SDS011;26233;51.894;10.192;2023-04-24T12:30:39;0.77;;;0.70;;
40533;SDS011;26233;51.894;10.192;2023-04-24T12:33:09;0.77;;;0.77;;
40533;SDS011;26233;51.894;10.192;2023-04-24T12:35:36;0.80;;;0.80;;
40533;SDS011;26233;51.894;10.192;2023-04-24T12:38:06;0.90;;;0.90;;
40533;SDS011;26233;51.894;10.192;2023-04-24T12:40:35;0.90;;;0.90;;
40533;SDS011;26233;51.894;10.192;2023-04-24T12:43:12;0.60;;;0.60;;
40533;SDS011;26233;51.894;10.192;2023-04-24T12:45:40;0.60;;;0.60;;
40533;SDS011;26233;51.894;10.192;2023-04-24T12:48:08;0.63;;;0.63;;
40533;SDS011;26233;51.894;10.192;2023-04-24T12:50:34;0.60;;;0.60;;
40533;SDS011;26233;51.894;10.192;2023-04-24T12:53:02;0.60;;;0.60;;
40533;SDS011;26233;51.894;10.192;2023-04-24T12:55:29;0.60;;;0.60;;
40533;SDS011;26233;51.894;10.192;2023-04-24T12:57:57;0.90;;;0.80;;
40533;SDS011;26233;51.894;10.192;2023-04-24T13:00:24;0.60;;;0.60;;
40533;SDS011;26233;51.894;10.192;2023-04-24T13:02:51;0.60;;;0.60;;
40533;SDS011;26233;51.894;10.192;2023-04-24T13:05:18;0.60;;;0.60;;
40533;SDS011;26233;51.894;10.192;2023-04-24T13:07:45;0.98;;;0.63;;
40533;SDS011;26233;51.894;10.192;2023-04-24T13:10:12;2.75;;;0.70;;
40533;SDS011;26233;51.894;10.192;2023-04-24T13:12:39;0.60;;;0.50;;
40533;SDS011;26233;51.894;10.192;2023-04-24T13:15:11;0.60;;;0.60;;
40533;SDS011;26233;51.894;10.192;2023-04-24T13:17:38;0.70;;;0.70;;
40533;SDS011;26233;51.894;10.192;2023-04-24T13:20:06;0.60;;;0.60;;
40533;SDS011;26233;51.894;10.192;2023-04-24T13:22:34;0.60;;;0.60;;
40533;SDS011;26233;51.894;10.192;2023-04-24T13:25:02;0.57;;;0.57;;
40533;SDS011;26233;51.894;10.192;2023-04-24T13:27:31;0.60;;;0.60;;
40533;SDS011;26233;51.894;10.192;2023-04-24T13:29:58;1.08;;;0.63;;
40533;SDS011;26233;51.894;10.192;2023-04-24T13:32:26;0.60;;;0.60;;
40533;SDS011;26233;51.894;10.192;2023-04-24T13:34:53;0.50;;;0.50;;
40533;SDS011;26233;51.894;10.192;2023-04-24T13:37:20;0.50;;;0.50;;
40533;SDS011;26233;51.894;10.192;2023-04-24T13:39:48;0.40;;;0.40;;
40533;SDS011;26233;51.894;10.192;2023-04-24T13:42:15;0.40;;;0.40;;
40533;SDS011;26233;51.894;10.192;2023-04-24T13:44:43;0.40;;;0.40;;
40533;SDS011;26233;51.894;10.192;2023-04-24T13:47:10;0.40;;;0.40;;
40533;SDS011;26233;51.894;10.192;2023-04-24T13:49:39;0.40;;;0.40;;
40533;SDS011;26233;51.894;10.192;2023-04-24T13:52:06;0.40;;;0.40;;
40533;SDS011;26233;51.894;10.192;2023-04-24T13:54:35;0.40;;;0.40;;
40533;SDS011;26233;51.894;10.192;2023-04-24T13:57:02;0.60;;;0.60;;
40533;SDS011;26233;51.894;10.192;2023-04-24T13:59:29;0.55;;;0.55;;
40533;SDS011;26233;51.894;10.192;2023-04-24T14:01:56;0.70;;;0.70;;
40533;SDS011;26233;51.894;10.192;2023-04-24T14:04:23;0.60;;;0.60;;
40533;SDS011;26233;51.894;10.192;2023-04-24T14:06:52;0.60;;;0.60;;
40533;SDS011;26233;51.894;10.192;2023-04-24T14:09:19;0.50;;;0.50;;
40533;SDS011;26233;51.894;10.192;2023-04-24T14:11:46;0.50;;;0.50;;
40533;SDS011;26233;51.894;10.192;2023-04-24T14:14:13;1.00;;;0.85;;
40533;SDS011;26233;51.894;10.192;2023-04-24T14:16:40;1.02;;;0.85;;
40533;SDS011;26233;51.894;10.192;2023-04-24T14:19:07;0.70;;;0.70;;
40533;SDS011;26233;51.894;10.192;2023-04-24T14:21:34;0.60;;;0.60;;
40533;SDS011;26233;51.894;10.192;2023-04-24T14:24:02;0.70;;;0.60;;
40533;SDS011;26233;51.894;10.192;2023-04-24T14:26:30;1.00;;;0.90;;
40533;SDS011;26233;51.894;10.192;2023-04-24T14:28:57;0.70;;;0.70;;
40533;SDS011;26233;51.894;10.192;2023-04-24T14:31:24;0.60;;;0.60;;
40533;SDS011;26233;51.894;10.192;2023-04-24T14:33:51;0.70;;;0.70;;
40533;SDS011;26233;51.894;10.192;2023-04-24T14:36:19;0.60;;;0.60;;
40533;SDS011;26233;51.894;10.192;2023-04-24T14:38:46;0.70;;;0.70;;
40533;SDS011;26233;51.894;10.192;2023-04-24T14:41:14;0.80;;;0.80;;
40533;SDS011;26233;51.894;10.192;2023-04-24T14:43:41;0.70;;;0.70;;